Time;durP1;ratioP1;P1;durP2;ratioP2;P2;SDS_P1;SDS_P2;PMS_P1;PMS_P2;Temp;Humidity;BMP_temperature;BMP_pressure;BME280_temperature;BME280_humidity;BME280_pressure;Samples;Min_cycle;Max_cycle;Signal;HPM_P1;HPM_P2
2022/04/24 00:02:42;;;;;;;0.10;0.00;;;11.90;99.90;;;;;;1887536;75;21118;-78
2022/04/24 00:05:34;;;;;;;0.45;0.20;;;12.00;99.90;;;;;;1914368;75;21031;-78
2022/04/24 00:08:25;;;;;;;0.80;0.30;;;12.00;99.90;;;;;;1895972;75;21161;-78
2022/04/24 00:11:17;;;;;;;0.50;0.23;;;11.90;99.90;;;;;;1897311;75;21116;-78
2022/04/24 00:16:48;;;;;;;0.53;0.10;;;11.90;99.90;;;;;;1938188;72;22247;-78
2022/04/24 00:19:58;;;;;;;0.37;0.13;;;11.90;99.90;;;;;;1895162;75;21071;-80
2022/04/24 00:23:08;;;;;;;0.45;0.15;;;11.80;99.90;;;;;;1897929;75;21109;-78
2022/04/24 00:26:00;;;;;;;0.30;0.10;;;11.80;99.90;;;;;;1905195;75;21052;-78
2022/04/24 00:31:53;;;;;;;0.65;0.20;;;11.80;99.90;;;;;;1953040;72;22249;-78
2022/04/24 00:35:03;;;;;;;1.07;0.20;;;11.80;99.90;;;;;;1903549;75;21139;-79
2022/04/24 00:38:13;;;;;;;0.40;0.20;;;11.70;99.90;;;;;;1906773;75;21118;-79
2022/04/24 00:41:05;;;;;;;0.20;0.20;;;11.70;99.90;;;;;;1914605;75;21087;-79
2022/04/24 00:44:16;;;;;;;0.20;0.10;;;11.60;99.90;;;;;;1912074;75;21035;-79
2022/04/24 00:47:12;;;;;;;1.30;0.23;;;11.50;99.90;;;;;;1901653;75;21063;-80
2022/04/24 00:50:06;;;;;;;0.30;0.10;;;11.50;99.90;;;;;;1899609;75;21557;-79
2022/04/24 00:52:57;;;;;;;0.45;0.10;;;11.50;99.90;;;;;;1899776;75;21554;-79
2022/04/24 00:55:49;;;;;;;0.62;0.10;;;11.50;99.90;;;;;;1895630;75;21088;-78
2022/04/24 00:58:41;;;;;;;1.10;0.30;;;11.50;99.90;;;;;;1917632;75;21136;-80
2022/04/24 01:01:34;;;;;;;1.80;0.15;;;11.60;99.90;;;;;;1898109;75;21061;-79
2022/04/24 01:04:26;;;;;;;0.20;0.20;;;11.60;99.90;;;;;;1900083;75;21051;-79
2022/04/24 01:07:17;;;;;;;0.82;0.23;;;11.50;99.90;;;;;;1917691;75;21052;-79
2022/04/24 01:10:10;;;;;;;0.20;0.20;;;11.50;99.90;;;;;;1895660;75;21120;-80
2022/04/24 01:13:01;;;;;;;0.60;0.47;;;11.50;99.90;;;;;;1895967;75;21110;-79
2022/04/24 01:15:55;;;;;;;0.20;0.15;;;11.50;99.90;;;;;;1901496;75;21070;-79
2022/04/24 01:18:47;;;;;;;0.60;0.30;;;11.40;99.90;;;;;;1903282;75;21183;-79
2022/04/24 01:29:42;;;;;;;0.33;0.20;;;11.50;99.90;;;;;;1942820;72;22187;-78
2022/04/24 01:32:53;;;;;;;0.75;0.20;;;11.40;99.90;;;;;;1887272;75;21185;-79
2022/04/24 01:36:03;;;;;;;0.17;0.10;;;11.40;99.90;;;;;;1872910;76;21167;-78
2022/04/24 01:38:55;;;;;;;0.20;0.10;;;11.50;99.90;;;;;;1893063;75;21523;-78
2022/04/24 01:44:45;;;;;;;0.65;0.03;;;11.60;99.90;;;;;;1958376;72;22107;-78
2022/04/24 01:47:56;;;;;;;0.50;0.50;;;11.60;99.90;;;;;;1906686;75;21093;-80
2022/04/24 01:51:07;;;;;;;0.10;0.10;;;11.60;99.90;;;;;;1907026;75;21078;-79
2022/04/24 01:53:59;;;;;;;1.32;0.10;;;11.60;99.90;;;;;;1911784;75;21122;-78
2022/04/24 01:57:09;;;;;;;0.15;0.10;;;11.50;99.90;;;;;;1896128;75;21089;-78
2022/04/24 02:00:00;;;;;;;0.20;0.10;;;11.60;99.90;;;;;;1898082;75;21121;-77
2022/04/24 02:05:31;;;;;;;0.25;0.10;;;11.60;99.90;;;;;;1928016;72;22586;-77
2022/04/24 02:08:41;;;;;;;0.17;0.15;;;11.60;99.90;;;;;;1925524;73;21087;-80
2022/04/24 02:14:30;;;;;;;0.90;0.20;;;11.70;99.90;;;;;;1946615;72;22798;-77
2022/04/24 02:20:20;;;;;;;0.40;0.20;;;11.60;99.90;;;;;;1951806;72;22602;-77
2022/04/24 02:23:30;;;;;;;0.82;0.33;;;11.50;99.90;;;;;;1897386;75;21123;-78
2022/04/24 02:29:19;;;;;;;0.53;0.33;;;11.40;99.90;;;;;;1974817;72;22098;-77
2022/04/24 02:32:29;;;;;;;0.23;0.10;;;11.30;99.90;;;;;;1917757;75;21109;-78
2022/04/24 02:35:39;;;;;;;0.62;0.30;;;11.20;99.90;;;;;;1917574;75;21148;-78
2022/04/24 02:38:31;;;;;;;0.17;0.13;;;11.20;99.90;;;;;;1935267;73;21103;-78
2022/04/24 02:41:41;;;;;;;0.90;0.20;;;11.20;99.90;;;;;;1917678;75;21566;-77
2022/04/24 02:44:33;;;;;;;0.72;0.17;;;11.20;99.90;;;;;;1917774;75;21047;-78
2022/04/24 02:47:25;;;;;;;0.10;0.10;;;11.30;99.90;;;;;;1917613;75;21048;-78
2022/04/24 02:50:17;;;;;;;0.25;0.13;;;11.40;99.90;;;;;;1917765;75;21095;-78
2022/04/24 02:53:10;;;;;;;1.40;0.20;;;11.50;99.90;;;;;;1921874;73;21105;-78
2022/04/24 02:56:02;;;;;;;0.20;0.17;;;11.40;99.90;;;;;;1929918;73;21083;-78
2022/04/24 02:58:53;;;;;;;0.20;0.20;;;11.40;99.90;;;;;;1919268;73;21062;-77
2022/04/24 03:01:46;;;;;;;0.20;0.20;;;11.30;99.90;;;;;;1917717;75;21133;-79
2022/04/24 03:04:38;;;;;;;0.30;0.20;;;11.40;99.90;;;;;;1937405;73;21080;-79
2022/04/24 03:07:30;;;;;;;0.72;0.20;;;11.40;99.90;;;;;;1917494;75;21157;-78
2022/04/24 03:10:22;;;;;;;0.37;0.20;;;11.30;99.90;;;;;;1917601;75;21141;-77
2022/04/24 03:13:15;;;;;;;1.98;0.10;;;11.20;99.90;;;;;;1935323;73;21059;-77
2022/04/24 03:16:06;;;;;;;0.10;0.10;;;11.30;99.90;;;;;;1945330;73;21055;-77
2022/04/24 03:18:58;;;;;;;0.33;0.10;;;11.40;99.90;;;;;;1931596;73;21059;-77
2022/04/24 03:24:29;;;;;;;0.33;0.20;;;11.40;99.90;;;;;;1940935;72;22169;-77
2022/04/24 03:27:40;;;;;;;0.50;0.20;;;11.50;99.90;;;;;;1894486;75;21063;-78
2022/04/24 03:30:50;;;;;;;0.15;0.15;;;11.40;99.90;;;;;;1939969;73;21050;-78
2022/04/24 03:33:40;;;;;;;0.28;0.10;;;11.40;99.90;;;;;;1935335;73;21185;-78
2022/04/24 03:39:31;;;;;;;0.72;0.20;;;11.40;99.90;;;;;;1946135;72;22110;-77
2022/04/24 03:45:21;;;;;;;1.07;0.20;;;11.40;99.90;;;;;;1954685;72;22337;-77
2022/04/24 03:48:31;;;;;;;0.70;0.40;;;11.40;99.90;;;;;;1924728;73;21114;-79
2022/04/24 03:51:40;;;;;;;0.60;0.30;;;11.30;99.90;;;;;;1935941;73;21494;-78
2022/04/24 03:54:32;;;;;;;0.20;0.20;;;11.20;99.90;;;;;;1917647;75;21162;-78
2022/04/24 04:00:21;;;;;;;0.30;0.30;;;11.20;99.90;;;;;;1954758;72;22257;-77
2022/04/24 04:03:31;;;;;;;0.40;0.30;;;11.20;99.90;;;;;;1908015;75;21114;-80
2022/04/24 04:06:41;;;;;;;1.05;0.40;;;11.10;99.90;;;;;;1884796;76;21055;-79
2022/04/24 04:09:33;;;;;;;0.35;0.20;;;11.10;99.90;;;;;;1903368;75;21084;-78
2022/04/24 04:12:43;;;;;;;0.50;0.30;;;11.10;99.90;;;;;;1901926;75;21097;-80
2022/04/24 04:15:35;;;;;;;2.50;0.20;;;11.10;99.90;;;;;;1907856;75;21052;-78
2022/04/24 04:18:26;;;;;;;1.90;0.30;;;11.10;99.90;;;;;;1911071;75;21120;-78
2022/04/24 04:21:20;;;;;;;0.68;0.30;;;11.00;99.90;;;;;;1906711;75;21053;-78
2022/04/24 04:24:12;;;;;;;3.67;0.40;;;10.90;99.90;;;;;;1914372;75;21417;-78
2022/04/24 04:29:42;;;;;;;3.27;0.55;;;10.90;99.90;;;;;;1942019;72;22193;-77
2022/04/24 04:32:53;;;;;;;1.90;0.40;;;10.90;99.90;;;;;;1913612;74;21150;-77
2022/04/24 04:36:03;;;;;;;0.90;0.40;;;10.80;99.90;;;;;;1914618;74;21058;-77
2022/04/24 04:38:54;;;;;;;3.37;0.40;;;10.80;99.90;;;;;;1915667;75;21135;-79
2022/04/24 04:44:44;;;;;;;2.05;0.42;;;10.70;99.90;;;;;;1976221;72;22174;-77
2022/04/24 04:47:54;;;;;;;2.37;0.40;;;10.60;99.90;;;;;;1929802;73;21102;-79
2022/04/24 04:51:04;;;;;;;1.17;0.55;;;10.40;99.90;;;;;;1917634;75;21095;-79
2022/04/24 04:53:56;;;;;;;0.90;0.50;;;10.40;99.90;;;;;;1931297;73;21098;-79
2022/04/24 04:57:06;;;;;;;1.42;0.40;;;10.40;99.90;;;;;;1928675;73;21239;-78
2022/04/24 05:02:39;;;;;;;2.52;0.47;;;10.40;99.90;;;;;;1976289;72;22154;-77
2022/04/24 05:05:49;;;;;;;0.82;0.40;;;10.40;99.90;;;;;;1917686;75;21051;-79
2022/04/24 05:08:59;;;;;;;1.47;0.60;;;10.40;99.90;;;;;;1938955;73;21113;-78
2022/04/24 05:11:51;;;;;;;1.10;0.35;;;10.40;99.90;;;;;;1917585;75;21062;-79
2022/04/24 05:15:03;;;;;;;0.70;0.30;;;10.40;99.90;;;;;;1917775;75;21039;-78
2022/04/24 05:17:55;;;;;;;1.67;0.30;;;10.30;99.90;;;;;;1917681;75;21086;-78
2022/04/24 05:20:47;;;;;;;2.15;0.35;;;10.40;99.90;;;;;;1917727;75;21124;-78
2022/04/24 05:23:40;;;;;;;0.75;0.30;;;10.40;99.90;;;;;;1933017;73;21281;-77
2022/04/24 05:26:31;;;;;;;1.27;0.35;;;10.50;99.90;;;;;;1924965;73;21106;-77
2022/04/24 05:29:23;;;;;;;1.40;0.37;;;10.60;99.90;;;;;;1917710;75;21137;-77
2022/04/24 05:34:54;;;;;;;0.15;0.15;;;10.90;99.90;;;;;;1947380;72;22765;-77
2022/04/24 05:38:04;;;;;;;0.85;0.60;;;11.10;99.90;;;;;;1907242;75;21055;-79
2022/04/24 05:41:14;;;;;;;2.45;0.55;;;11.10;99.90;;;;;;1907055;75;21055;-78
2022/04/24 05:44:07;;;;;;;1.20;0.30;;;11.00;99.90;;;;;;1910679;75;21114;-78
2022/04/24 05:47:17;;;;;;;1.37;0.40;;;10.90;99.90;;;;;;1895937;75;21101;-77
2022/04/24 05:50:09;;;;;;;0.60;0.40;;;10.80;99.90;;;;;;1917852;75;21056;-77
2022/04/24 05:53:02;;;;;;;0.60;0.30;;;10.90;99.90;;;;;;1899207;75;21055;-77
2022/04/24 05:55:54;;;;;;;1.85;0.40;;;10.90;99.90;;;;;;1895598;75;21124;-77
2022/04/24 05:58:46;;;;;;;1.60;0.35;;;10.90;99.90;;;;;;1891642;75;21133;-77
2022/04/24 06:01:38;;;;;;;3.67;0.50;;;10.90;99.90;;;;;;1906292;75;21060;-77
2022/04/24 06:04:30;;;;;;;2.25;0.40;;;10.90;99.90;;;;;;1901133;75;21055;-77
2022/04/24 06:07:23;;;;;;;1.47;0.30;;;11.10;99.90;;;;;;1896191;75;21047;-77
2022/04/24 06:10:15;;;;;;;1.15;0.40;;;11.10;99.90;;;;;;1895709;75;21223;-77
2022/04/24 06:13:07;;;;;;;0.85;0.28;;;11.20;99.90;;;;;;1898536;75;21059;-77
2022/04/24 06:15:59;;;;;;;1.77;0.35;;;11.30;99.90;;;;;;1879476;76;21122;-78
2022/04/24 06:18:51;;;;;;;0.30;0.30;;;11.30;99.90;;;;;;1898302;75;21109;-77
2022/04/24 06:21:43;;;;;;;0.60;0.30;;;11.40;99.90;;;;;;1909847;75;21096;-77
2022/04/24 06:24:36;;;;;;;0.40;0.30;;;11.50;99.90;;;;;;1906981;75;21062;-77
2022/04/24 06:27:29;;;;;;;1.60;0.30;;;11.50;99.90;;;;;;1905559;75;21048;-77
2022/04/24 06:30:23;;;;;;;2.10;0.40;;;11.40;99.90;;;;;;1902107;75;21055;-77
2022/04/24 06:33:15;;;;;;;1.80;0.30;;;11.40;99.90;;;;;;1896293;75;21165;-78
2022/04/24 06:36:07;;;;;;;1.47;0.30;;;11.10;99.90;;;;;;1895799;75;21098;-78
2022/04/24 06:39:00;;;;;;;0.40;0.30;;;10.90;99.90;;;;;;1895765;75;21055;-77
2022/04/24 06:41:52;;;;;;;1.87;0.37;;;10.90;99.90;;;;;;1899175;75;21067;-77
2022/04/24 06:44:45;;;;;;;3.60;0.33;;;11.00;99.90;;;;;;1898550;75;21063;-78
2022/04/24 06:47:37;;;;;;;0.95;0.40;;;11.10;99.90;;;;;;1895061;75;21135;-76
2022/04/24 06:50:30;;;;;;;1.42;0.35;;;11.00;99.90;;;;;;1891447;75;21051;-77
2022/04/24 06:53:23;;;;;;;1.60;0.20;;;11.00;99.90;;;;;;1884501;76;21067;-77
2022/04/24 06:56:15;;;;;;;0.50;0.37;;;10.90;99.90;;;;;;1864646;76;21054;-78
2022/04/24 06:59:06;;;;;;;0.88;0.40;;;10.80;99.90;;;;;;1895586;75;21117;-77
2022/04/24 07:01:58;;;;;;;1.60;0.30;;;11.00;99.90;;;;;;1895376;75;21098;-78
2022/04/24 07:04:50;;;;;;;0.50;0.30;;;11.10;99.90;;;;;;1895111;75;21121;-78
2022/04/24 07:07:42;;;;;;;1.25;0.37;;;11.10;99.90;;;;;;1911429;73;21098;-78
2022/04/24 07:10:34;;;;;;;2.70;0.35;;;10.90;99.90;;;;;;1907136;73;21494;-78
2022/04/24 07:13:25;;;;;;;0.98;0.30;;;10.90;99.90;;;;;;1906107;75;21557;-79
2022/04/24 07:16:17;;;;;;;1.22;0.40;;;11.00;99.90;;;;;;1906173;75;21160;-79
2022/04/24 07:19:09;;;;;;;3.98;0.30;;;11.10;99.90;;;;;;1901864;75;21084;-78
2022/04/24 07:22:00;;;;;;;0.62;0.33;;;11.20;99.90;;;;;;1896043;75;21105;-78
2022/04/24 07:24:52;;;;;;;1.07;0.30;;;11.20;99.90;;;;;;1910370;75;21636;-77
2022/04/24 07:27:44;;;;;;;0.42;0.30;;;11.30;99.90;;;;;;1905977;75;21181;-77
2022/04/24 07:33:15;;;;;;;0.50;0.20;;;11.40;99.90;;;;;;1941642;72;22236;-80
2022/04/24 07:36:27;;;;;;;0.45;0.30;;;11.20;99.90;;;;;;1903239;73;21047;-79
2022/04/24 07:39:37;;;;;;;0.42;0.30;;;11.30;99.90;;;;;;1909650;75;21112;-79
2022/04/24 07:42:29;;;;;;;1.45;0.40;;;11.40;99.90;;;;;;1901474;73;21135;-79
2022/04/24 07:48:20;;;;;;;0.50;0.30;;;11.50;99.90;;;;;;1931274;72;22206;-78
2022/04/24 07:51:30;;;;;;;0.70;0.30;;;11.50;99.90;;;;;;1889131;75;21095;-80
2022/04/24 07:54:41;;;;;;;0.82;0.50;;;11.30;99.90;;;;;;1888500;75;21112;-78
2022/04/24 07:57:33;;;;;;;1.12;0.40;;;11.40;99.90;;;;;;1883518;75;21056;-78
2022/04/24 08:00:44;;;;;;;2.17;0.40;;;11.60;99.90;;;;;;1883811;75;21523;-80
2022/04/24 08:03:36;;;;;;;0.45;0.30;;;11.70;99.90;;;;;;1883105;75;21099;-77
2022/04/24 08:06:28;;;;;;;1.02;0.40;;;11.70;99.90;;;;;;1897145;73;21163;-77
2022/04/24 08:09:20;;;;;;;1.07;0.33;;;11.80;99.90;;;;;;1888557;75;21095;-78
2022/04/24 08:12:12;;;;;;;0.53;0.40;;;11.70;99.90;;;;;;1883676;75;21118;-78
2022/04/24 08:15:04;;;;;;;1.07;0.40;;;11.70;99.90;;;;;;1895555;75;21062;-79
2022/04/24 08:17:55;;;;;;;2.75;0.30;;;11.80;99.90;;;;;;1875235;74;21194;-78
2022/04/24 08:20:47;;;;;;;0.57;0.30;;;12.00;99.90;;;;;;1888243;75;21087;-77
2022/04/24 08:23:39;;;;;;;0.60;0.35;;;12.10;99.90;;;;;;1873208;76;21626;-77
2022/04/24 08:26:31;;;;;;;0.50;0.40;;;12.20;99.90;;;;;;1894732;75;21181;-78
2022/04/24 08:29:23;;;;;;;0.20;0.20;;;12.40;99.90;;;;;;1894639;75;21048;-79
2022/04/24 08:32:14;;;;;;;0.30;0.30;;;12.40;99.90;;;;;;1873062;75;21176;-78
2022/04/24 08:35:09;;;;;;;0.55;0.30;;;12.40;99.90;;;;;;1886656;75;21200;-78
2022/04/24 08:38:02;;;;;;;0.82;0.33;;;12.40;99.90;;;;;;1883568;75;21122;-77
2022/04/24 08:40:55;;;;;;;0.88;0.20;;;12.40;99.90;;;;;;1878728;75;21617;-78
2022/04/24 08:43:47;;;;;;;0.40;0.20;;;12.50;99.90;;;;;;1894621;75;21596;-77
2022/04/24 08:46:39;;;;;;;0.30;0.30;;;12.40;99.90;;;;;;1889968;75;21083;-78
2022/04/24 08:49:32;;;;;;;0.72;0.40;;;12.40;99.90;;;;;;1886451;74;21159;-78
2022/04/24 08:52:27;;;;;;;0.93;0.40;;;12.40;99.90;;;;;;1880422;75;21056;-77
2022/04/24 08:55:19;;;;;;;0.53;0.25;;;12.50;99.90;;;;;;1883582;75;21309;-77
2022/04/24 08:58:10;;;;;;;0.55;0.25;;;12.50;99.90;;;;;;1885200;75;21151;-77
2022/04/24 09:01:02;;;;;;;0.30;0.20;;;12.50;99.90;;;;;;1886796;75;21118;-77
2022/04/24 09:03:54;;;;;;;0.85;0.28;;;12.40;99.90;;;;;;1873785;75;21205;-77
2022/04/24 09:06:56;;;;;;;0.90;0.30;;;12.70;99.90;;;;;;1875089;75;21144;-77
2022/04/24 09:09:49;;;;;;;0.30;0.20;;;12.90;99.90;;;;;;1883122;75;21196;-77
2022/04/24 09:12:42;;;;;;;0.40;0.25;;;12.80;99.90;;;;;;1887496;75;21067;-77
2022/04/24 09:15:35;;;;;;;1.07;0.30;;;13.00;99.90;;;;;;1884679;75;21121;-77
2022/04/24 09:18:41;;;;;;;0.70;0.20;;;13.10;99.90;;;;;;1881136;75;21120;-77
2022/04/24 09:21:33;;;;;;;0.20;0.20;;;13.30;99.90;;;;;;1898100;75;21106;-77
2022/04/24 09:24:27;;;;;;;0.42;0.13;;;13.30;99.90;;;;;;1893805;75;21131;-86
2022/04/24 09:27:26;;;;;;;0.70;0.15;;;13.50;99.90;;;;;;1889978;75;21047;-86
2022/04/24 09:33:06;;;;;;;0.35;0.30;;;13.40;99.90;;;;;;1934404;72;22596;-85
2022/04/24 09:38:55;;;;;;;1.05;0.20;;;13.60;99.90;;;;;;1954404;72;22194;-87
2022/04/24 09:42:10;;;;;;;0.82;0.40;;;13.60;99.90;;;;;;1885716;75;21099;-88
2022/04/24 09:45:26;;;;;;;1.10;0.25;;;13.80;99.90;;;;;;1906722;75;21519;-88
2022/04/24 09:48:21;;;;;;;0.93;0.10;;;13.90;99.90;;;;;;1895944;73;21048;-82
2022/04/24 09:51:56;;;;;;;2.08;0.30;;;14.00;99.90;;;;;;1888649;75;21136;-82
2022/04/24 09:55:00;;;;;;;0.62;0.20;;;14.10;99.90;;;;;;1867589;73;21101;-94
2022/04/24 09:57:55;;;;;;;1.12;0.23;;;13.90;99.90;;;;;;1896487;76;21110;-94
2022/04/24 10:00:53;;;;;;;1.32;0.30;;;13.90;99.90;;;;;;1864420;77;21082;-93
2022/04/24 10:03:55;;;;;;;1.32;0.40;;;13.90;99.90;;;;;;1864296;77;21095;-93
2022/04/24 10:06:48;;;;;;;1.27;0.33;;;13.80;99.90;;;;;;1870218;77;21070;-95
2022/04/24 10:09:41;;;;;;;0.95;0.40;;;13.90;99.90;;;;;;1870405;77;21099;-91
2022/04/24 10:12:33;;;;;;;0.60;0.40;;;13.80;99.90;;;;;;1870286;77;21621;-94
2022/04/24 10:15:27;;;;;;;1.25;0.60;;;13.90;99.90;;;;;;1870538;77;21079;-95
2022/04/24 10:18:32;;;;;;;1.00;0.47;;;13.90;99.90;;;;;;1919875;74;21084;-92
2022/04/24 10:21:47;;;;;;;0.70;0.30;;;13.80;99.90;;;;;;1927501;74;21059;-93
2022/04/24 10:24:44;;;;;;;0.93;0.40;;;13.80;99.90;;;;;;1927088;74;21123;-94
2022/04/24 10:27:43;;;;;;;0.37;0.28;;;13.70;99.90;;;;;;1900906;75;21057;-94
2022/04/24 10:30:36;;;;;;;1.40;0.30;;;13.80;99.90;;;;;;1935626;74;21171;-93
2022/04/24 10:33:33;;;;;;;0.50;0.30;;;13.90;99.90;;;;;;1893028;75;21132;-82
2022/04/24 10:36:26;;;;;;;0.33;0.30;;;13.90;99.90;;;;;;1898604;75;21076;-80
2022/04/24 10:39:19;;;;;;;0.20;0.20;;;13.70;99.90;;;;;;1867639;75;21100;-80
2022/04/24 10:42:14;;;;;;;0.93;0.30;;;14.00;99.90;;;;;;1850676;77;21077;-80
2022/04/24 10:45:09;;;;;;;0.35;0.25;;;14.00;99.90;;;;;;1898914;75;21541;-80
2022/04/24 10:48:06;;;;;;;0.95;0.30;;;14.30;99.90;;;;;;1901475;75;21172;-81
2022/04/24 10:50:58;;;;;;;1.95;0.30;;;14.40;99.90;;;;;;1862575;77;21095;-81
2022/04/24 10:53:56;;;;;;;0.72;0.20;;;14.60;99.90;;;;;;1897083;76;21133;-81
2022/04/24 10:56:51;;;;;;;1.57;0.28;;;14.70;99.90;;;;;;1898854;74;21614;-82
2022/04/24 10:59:51;;;;;;;0.47;0.35;;;14.90;99.90;;;;;;1902837;74;21163;-81
2022/04/24 11:02:43;;;;;;;0.30;0.30;;;15.00;99.90;;;;;;1926158;74;21563;-80
2022/04/24 11:05:40;;;;;;;0.40;0.40;;;15.00;99.90;;;;;;1928594;74;21492;-80
2022/04/24 11:08:33;;;;;;;0.50;0.20;;;15.20;99.90;;;;;;1906775;74;21053;-80
2022/04/24 11:11:25;;;;;;;0.70;0.13;;;15.10;99.90;;;;;;1927508;74;21160;-80
2022/04/24 11:14:23;;;;;;;0.28;0.28;;;15.20;99.90;;;;;;1928517;74;21058;-82
2022/04/24 11:17:15;;;;;;;0.72;0.30;;;15.40;99.90;;;;;;1926701;74;21065;-80
2022/04/24 11:20:10;;;;;;;0.88;0.45;;;15.60;99.90;;;;;;1925077;73;21077;-81
2022/04/24 11:25:42;;;;;;;0.20;0.20;;;15.70;99.90;;;;;;1937336;72;22234;-80
2022/04/24 11:28:53;;;;;;;1.40;0.40;;;15.90;99.90;;;;;;1889208;75;21184;-81
2022/04/24 11:32:07;;;;;;;1.22;0.20;;;16.10;99.90;;;;;;1895827;73;21105;-80
2022/04/24 11:34:58;;;;;;;0.30;0.30;;;16.50;99.90;;;;;;1909753;75;21168;-80
2022/04/24 11:38:13;;;;;;;1.32;0.30;;;16.50;99.90;;;;;;1893067;75;21553;-80
2022/04/24 11:41:09;;;;;;;0.33;0.25;;;17.10;99.90;;;;;;1907866;75;21160;-81
2022/04/24 11:50:13;;;;;;;0.90;0.30;;;17.30;99.90;;;;;;1902090;74;21059;-81
2022/04/24 11:50:22;;;;;;;0.40;0.30;;;17.30;99.90;;;;;;1913831;75;21096;-79
2022/04/24 11:53:15;;;;;;;0.62;0.30;;;17.40;99.90;;;;;;1874232;76;21231;-78
2022/04/24 11:56:07;;;;;;;2.62;0.50;;;17.40;99.90;;;;;;1867262;76;21186;-78
2022/04/24 11:59:15;;;;;;;2.33;0.60;;;17.40;99.90;;;;;;1888751;75;21104;-78
2022/04/24 12:02:09;;;;;;;0.40;0.25;;;17.30;99.90;;;;;;1913569;75;21496;-79
2022/04/24 12:05:01;;;;;;;0.42;0.30;;;17.20;99.90;;;;;;1907520;75;21578;-79
2022/04/24 12:07:56;;;;;;;1.75;0.30;;;16.90;99.90;;;;;;1854796;77;21082;-79
2022/04/24 12:10:48;;;;;;;0.70;0.30;;;16.90;99.90;;;;;;1898264;75;21106;-78
2022/04/24 12:13:40;;;;;;;1.02;0.30;;;17.00;99.90;;;;;;1896081;74;21114;-78
2022/04/24 12:16:32;;;;;;;0.68;0.25;;;17.00;99.90;;;;;;1871328;76;21128;-78
2022/04/24 12:19:26;;;;;;;2.20;0.35;;;16.60;99.90;;;;;;1912527;74;21197;-78
2022/04/24 12:22:19;;;;;;;0.68;0.35;;;16.40;99.90;;;;;;1840293;78;21537;-78
2022/04/24 12:25:15;;;;;;;0.93;0.50;;;16.40;99.90;;;;;;1874729;76;21091;-78
2022/04/24 12:28:07;;;;;;;0.40;0.35;;;16.40;99.90;;;;;;1869751;76;21563;-78
2022/04/24 12:31:01;;;;;;;1.57;0.35;;;16.30;99.90;;;;;;1849486;77;21124;-79
2022/04/24 12:33:54;;;;;;;1.20;0.42;;;16.30;99.90;;;;;;1863303;77;21114;-79
2022/04/24 12:36:55;;;;;;;3.77;0.37;;;16.40;99.90;;;;;;1870921;76;21131;-79
2022/04/24 12:39:54;;;;;;;0.50;0.30;;;16.40;99.90;;;;;;1858695;77;21705;-78
2022/04/24 12:42:54;;;;;;;0.42;0.20;;;16.40;99.90;;;;;;1879557;76;21227;-79
2022/04/24 12:45:46;;;;;;;0.30;0.30;;;16.50;99.90;;;;;;1857618;76;21151;-79
2022/04/24 12:48:48;;;;;;;0.42;0.40;;;16.50;99.90;;;;;;1876054;76;21137;-79
2022/04/24 12:51:40;;;;;;;0.80;0.30;;;16.50;99.90;;;;;;1865980;76;21190;-79
2022/04/24 12:54:34;;;;;;;0.53;0.35;;;16.40;99.90;;;;;;1895923;75;21109;-79
2022/04/24 12:57:26;;;;;;;2.67;0.62;;;16.40;99.90;;;;;;1897821;75;21651;-78
2022/04/24 13:02:59;;;;;;;0.62;0.30;;;16.40;99.90;;;;;;1910471;72;22151;-84
2022/04/24 13:06:10;;;;;;;0.30;0.23;;;16.40;99.90;;;;;;1899469;75;21120;-77
2022/04/24 13:09:21;;;;;;;0.35;0.20;;;16.30;99.90;;;;;;1906428;75;21089;-78
2022/04/24 13:12:13;;;;;;;0.60;0.20;;;16.30;99.90;;;;;;1915567;74;21105;-78
2022/04/24 13:15:24;;;;;;;2.87;0.28;;;16.10;99.90;;;;;;1911309;75;21096;-77
2022/04/24 13:18:16;;;;;;;0.57;0.20;;;16.10;99.90;;;;;;1894985;75;21654;-78
2022/04/24 13:21:09;;;;;;;0.40;0.17;;;16.10;99.90;;;;;;1906481;73;21120;-77
2022/04/24 13:24:05;;;;;;;0.45;0.20;;;16.10;99.90;;;;;;1913666;75;21223;-77
2022/04/24 13:26:57;;;;;;;0.90;0.40;;;16.20;99.90;;;;;;1902397;73;21148;-78
2022/04/24 13:29:49;;;;;;;0.42;0.20;;;16.20;99.90;;;;;;1875695;73;21159;-77
2022/04/24 13:32:41;;;;;;;0.82;0.40;;;16.30;99.90;;;;;;1896466;73;21059;-79
2022/04/24 13:35:32;;;;;;;2.37;0.40;;;16.50;99.90;;;;;;1916630;75;21133;-78
2022/04/24 13:38:24;;;;;;;0.62;0.40;;;16.80;99.90;;;;;;1915525;75;21133;-78
2022/04/24 13:41:18;;;;;;;2.15;0.40;;;17.00;99.90;;;;;;1875085;75;21559;-90
2022/04/24 13:44:10;;;;;;;0.37;0.20;;;17.10;99.90;;;;;;1915510;75;21098;-90
2022/04/24 13:47:05;;;;;;;1.37;0.30;;;17.40;99.90;;;;;;1895754;75;21098;-92
2022/04/24 13:49:56;;;;;;;0.20;0.20;;;17.60;99.90;;;;;;1909400;74;21106;-91
2022/04/24 13:52:49;;;;;;;0.30;0.13;;;17.70;99.90;;;;;;1910498;74;21158;-91
2022/04/24 13:55:41;;;;;;;0.33;0.30;;;17.70;99.90;;;;;;1899477;75;21047;-92
2022/04/24 13:58:33;;;;;;;1.55;0.40;;;17.80;99.90;;;;;;1900803;74;21159;-79
2022/04/24 14:01:25;;;;;;;0.42;0.20;;;17.60;99.90;;;;;;1911561;75;21637;-78
2022/04/24 14:04:17;;;;;;;0.60;0.40;;;17.60;99.90;;;;;;1908466;75;21193;-78
2022/04/24 14:07:11;;;;;;;0.42;0.20;;;17.60;99.90;;;;;;1915878;74;21175;-78
2022/04/24 14:10:03;;;;;;;0.33;0.10;;;17.60;99.90;;;;;;1911692;75;21121;-90
2022/04/24 14:12:55;;;;;;;0.00;0.00;;;17.70;99.90;;;;;;1910279;74;21158;-90
2022/04/24 14:15:48;;;;;;;0.85;0.20;;;17.70;99.90;;;;;;1910542;74;21119;-90
2022/04/24 14:18:39;;;;;;;0.13;0.10;;;17.80;99.90;;;;;;1910470;74;21168;-91
2022/04/24 14:21:31;;;;;;;1.37;0.10;;;17.80;99.90;;;;;;1911941;74;21022;-90
2022/04/24 14:27:04;;;;;;;0.10;0.10;;;18.20;99.90;;;;;;1959260;72;22174;-79
2022/04/24 14:30:15;;;;;;;0.10;0.10;;;18.30;99.90;;;;;;1905615;75;21099;-77
2022/04/24 14:33:26;;;;;;;0.65;0.10;;;18.40;99.90;;;;;;1896518;75;21102;-78
2022/04/24 14:36:18;;;;;;;0.10;0.10;;;18.50;99.90;;;;;;1884612;76;21071;-78
2022/04/24 14:39:28;;;;;;;0.10;0.10;;;18.60;99.90;;;;;;1899059;75;21055;-78
2022/04/24 14:42:21;;;;;;;0.13;0.10;;;18.60;99.90;;;;;;1868539;76;21128;-78
2022/04/24 14:45:13;;;;;;;0.42;0.33;;;18.40;99.90;;;;;;1894921;75;21066;-77
2022/04/24 14:57:34;;;;;;;1.17;0.23;;;18.00;99.90;;;;;;1901380;73;21044;-90
2022/04/24 15:00:28;;;;;;;0.10;0.10;;;17.90;99.90;;;;;;1897247;75;21187;-90
2022/04/24 15:03:21;;;;;;;0.47;0.13;;;18.00;99.90;;;;;;1910149;73;21120;-78
2022/04/24 15:06:15;;;;;;;0.42;0.30;;;18.00;99.90;;;;;;1906498;75;21086;-78
2022/04/24 15:09:07;;;;;;;0.10;0.00;;;18.10;99.90;;;;;;1897646;75;21577;-77
2022/04/24 15:12:02;;;;;;;0.20;0.10;;;18.20;99.90;;;;;;1895210;75;21181;-79
2022/04/24 15:14:54;;;;;;;0.50;0.10;;;18.30;99.90;;;;;;1912220;75;21150;-78
2022/04/24 15:17:46;;;;;;;1.20;0.20;;;18.40;99.90;;;;;;1883910;76;21091;-78
2022/04/24 15:20:38;;;;;;;0.30;0.20;;;18.60;99.90;;;;;;1899185;75;21126;-78
2022/04/24 15:23:29;;;;;;;0.20;0.20;;;18.80;99.90;;;;;;1853610;75;21102;-78
2022/04/24 15:26:21;;;;;;;0.95;0.17;;;18.80;99.90;;;;;;1911903;74;21103;-78
2022/04/24 15:31:54;;;;;;;0.23;0.10;;;19.10;99.90;;;;;;1951374;72;22283;-77
2022/04/24 15:35:07;;;;;;;1.45;0.10;;;19.10;99.90;;;;;;1893450;74;21098;-77
2022/04/24 15:38:23;;;;;;;0.37;0.23;;;18.70;99.90;;;;;;1904588;74;21341;-79
2022/04/24 15:41:17;;;;;;;0.10;0.10;;;18.60;99.90;;;;;;1921858;73;21336;-78
2022/04/24 15:45:10;;;;;;;0.10;0.10;;;18.60;99.90;;;;;;1896665;74;21139;-77
2022/04/24 15:47:22;;;;;;;0.62;0.30;;;18.60;99.90;;;;;;1898610;75;21099;-77
2022/04/24 15:50:16;;;;;;;0.13;0.10;;;18.30;99.90;;;;;;1905986;73;21230;-78
2022/04/24 15:53:08;;;;;;;1.22;0.30;;;18.30;99.90;;;;;;1918278;73;21051;-78
2022/04/24 15:58:40;;;;;;;0.85;0.10;;;18.40;99.90;;;;;;1954515;72;22267;-78
2022/04/24 16:01:50;;;;;;;0.30;0.20;;;18.10;99.90;;;;;;1894458;75;21051;-78
2022/04/24 16:05:02;;;;;;;0.10;0.10;;;17.90;99.90;;;;;;1896494;75;21196;-78
2022/04/24 16:07:57;;;;;;;0.10;0.10;;;17.90;99.90;;;;;;1889617;74;21166;-78
2022/04/24 16:11:09;;;;;;;0.15;0.15;;;17.80;99.90;;;;;;1902484;75;21191;-77
2022/04/24 16:14:02;;;;;;;0.42;0.23;;;17.70;99.90;;;;;;1894096;73;21891;-75
2022/04/24 16:16:54;;;;;;;0.10;0.10;;;17.70;99.90;;;;;;1879943;76;21549;-76
2022/04/24 16:19:46;;;;;;;0.45;0.20;;;17.70;99.90;;;;;;1917054;75;21502;-92
2022/04/24 16:22:40;;;;;;;0.15;0.10;;;17.60;99.90;;;;;;1917797;75;21082;-93
2022/04/24 16:25:34;;;;;;;0.75;0.30;;;17.60;99.90;;;;;;1918022;75;21132;-93
2022/04/24 16:28:26;;;;;;;0.42;0.10;;;17.60;99.90;;;;;;1917863;75;21082;-92
2022/04/24 16:31:17;;;;;;;0.30;0.20;;;17.50;99.90;;;;;;1917987;75;21193;-94
2022/04/24 16:34:10;;;;;;;0.57;0.33;;;17.30;99.90;;;;;;1889830;75;21532;-75
2022/04/24 16:37:02;;;;;;;0.20;0.10;;;17.30;99.90;;;;;;1916831;75;21185;-75
2022/04/24 16:39:53;;;;;;;1.00;0.20;;;17.20;99.90;;;;;;1884622;75;21137;-76
2022/04/24 16:42:46;;;;;;;0.28;0.20;;;17.20;99.90;;;;;;1887814;75;21118;-76
2022/04/24 16:45:38;;;;;;;0.23;0.20;;;17.10;99.90;;;;;;1886391;75;21174;-85
2022/04/24 16:48:31;;;;;;;0.30;0.17;;;17.10;99.90;;;;;;1885259;76;21142;-93